Time;durP1;ratioP1;P1;durP2;ratioP2;P2;SDS_P1;SDS_P2;PMS_P1;PMS_P2;Temp;Humidity;BMP_temperature;BMP_pressure;BME280_temperature;BME280_humidity;BME280_pressure;Samples;Min_cycle;Max_cycle;Signal;HPM_P1;HPM_P2
2023/10/29 00:01:28;;;;;;;4.77;1.57;;;;;9.20;92768.00;;;;7400867;19;20141;-80
2023/10/29 00:04:13;;;;;;;4.00;1.37;;;;;9.20;92779.00;;;;7403915;19;20539;-78
2023/10/29 00:06:55;;;;;;;3.63;1.80;;;;;9.20;92783.00;;;;7401592;19;20149;-76
2023/10/29 00:09:30;;;;;;;3.15;1.30;;;;;9.20;92784.00;;;;7401794;19;20592;-79
2023/10/29 00:12:07;;;;;;;2.80;1.40;;;;;9.10;92772.00;;;;7402468;19;20136;-78
2023/10/29 00:14:41;;;;;;;5.00;1.50;;;;;9.10;92766.00;;;;7399597;19;20170;-79
2023/10/29 00:17:16;;;;;;;4.70;1.57;;;;;9.00;92760.00;;;;7398959;19;20133;-77
2023/10/29 00:19:46;;;;;;;2.28;1.52;;;;;8.90;92770.00;;;;7400011;19;20222;-77
2023/10/29 00:22:20;;;;;;;3.80;1.50;;;;;9.00;92765.00;;;;7401124;19;20128;-78
2023/10/29 00:24:54;;;;;;;4.47;1.90;;;;;9.00;92761.00;;;;7400352;19;20629;-78
2023/10/29 00:27:30;;;;;;;1.65;1.20;;;;;9.00;92756.00;;;;7399693;19;20149;-78
2023/10/29 00:30:05;;;;;;;2.43;1.40;;;;;9.00;92767.00;;;;7397958;19;20148;-76
2023/10/29 00:32:39;;;;;;;3.17;1.60;;;;;9.20;92756.00;;;;7401705;19;20144;-75
2023/10/29 00:35:07;;;;;;;5.57;1.50;;;;;9.20;92759.00;;;;7399866;19;20149;-76
2023/10/29 00:37:41;;;;;;;3.15;1.33;;;;;9.30;92765.00;;;;7397876;19;20163;-75
2023/10/29 00:40:09;;;;;;;3.90;1.40;;;;;9.30;92754.00;;;;7399556;19;20136;-75
2023/10/29 00:42:43;;;;;;;1.70;1.20;;;;;9.30;92762.00;;;;7400389;19;20653;-74
2023/10/29 00:45:20;;;;;;;3.77;1.40;;;;;9.40;92748.00;;;;7400999;19;20152;-77
2023/10/29 00:47:57;;;;;;;2.63;1.45;;;;;9.30;92748.00;;;;7401190;19;20206;-76
2023/10/29 00:50:26;;;;;;;3.75;1.30;;;;;9.30;92747.00;;;;7400438;19;20200;-77
2023/10/29 00:53:00;;;;;;;5.40;1.10;;;;;9.40;92759.00;;;;7399829;19;20132;-74
2023/10/29 00:55:28;;;;;;;2.33;1.30;;;;;9.40;92757.00;;;;7401801;19;20204;-76
2023/10/29 00:58:08;;;;;;;3.70;1.30;;;;;9.40;92751.00;;;;7397791;19;20580;-76
2023/10/29 01:00:35;;;;;;;2.63;1.55;;;;;9.30;92750.00;;;;7399366;19;20151;-77
2023/10/29 01:03:10;;;;;;;2.63;1.30;;;;;9.30;92746.00;;;;7399185;19;20148;-75
2023/10/29 01:05:39;;;;;;;2.10;1.58;;;;;9.20;92744.00;;;;7401119;19;20486;-75
2023/10/29 01:08:14;;;;;;;2.80;1.40;;;;;9.20;92745.00;;;;6902889;19;9710067;-76
2023/10/29 01:10:56;;;;;;;8.83;2.67;;;;;9.20;92735.00;;;;7400746;19;20169;-75
2023/10/29 01:13:32;;;;;;;5.03;1.70;;;;;9.30;92733.00;;;;7402309;19;20141;-76
2023/10/29 01:16:06;;;;;;;2.90;1.20;;;;;9.20;92734.00;;;;7400582;19;20129;-75
2023/10/29 01:18:41;;;;;;;2.23;1.23;;;;;9.30;92729.00;;;;7398511;19;20145;-75
2023/10/29 01:21:09;;;;;;;4.13;1.40;;;;;9.20;92720.00;;;;7400482;19;20166;-75
2023/10/29 01:23:45;;;;;;;3.97;1.67;;;;;9.20;92711.00;;;;7402833;19;20128;-77
2023/10/29 01:26:13;;;;;;;4.97;1.43;;;;;9.20;92708.00;;;;7402690;19;20137;-76
2023/10/29 01:28:42;;;;;;;3.92;1.40;;;;;9.10;92704.00;;;;7400306;19;20811;-75
2023/10/29 01:31:15;;;;;;;3.10;1.20;;;;;9.20;92708.00;;;;7403257;19;20131;-75
2023/10/29 01:33:52;;;;;;;3.80;1.70;;;;;9.10;92707.00;;;;7401149;19;20156;-74
2023/10/29 01:36:26;;;;;;;2.03;1.08;;;;;9.10;92700.00;;;;7399952;19;20136;-74
2023/10/29 01:39:00;;;;;;;5.13;1.30;;;;;9.10;92698.00;;;;7398613;19;20159;-76
2023/10/29 01:41:30;;;;;;;2.45;1.50;;;;;9.20;92690.00;;;;7400175;19;20133;-79
2023/10/29 01:43:58;;;;;;;3.63;1.42;;;;;9.30;92688.00;;;;7400196;19;20146;-76
2023/10/29 01:46:32;;;;;;;2.30;1.30;;;;;9.30;92689.00;;;;7399666;19;20467;-76
2023/10/29 01:49:09;;;;;;;3.63;0.80;;;;;9.40;92686.00;;;;7398369;19;20148;-77
2023/10/29 01:51:37;;;;;;;2.95;1.35;;;;;9.40;92691.00;;;;7400716;19;20153;-75
2023/10/29 01:54:12;;;;;;;1.60;1.30;;;;;9.40;92689.00;;;;7399596;19;20132;-76
2023/10/29 01:56:42;;;;;;;6.07;1.30;;;;;9.40;92678.00;;;;7398323;19;20208;-77
2023/10/29 01:59:16;;;;;;;1.30;0.90;;;;;9.50;92685.00;;;;7398260;19;20128;-76
2023/10/29 02:01:50;;;;;;;2.80;1.33;;;;;9.60;92688.00;;;;7398600;19;20521;-75
2023/10/29 02:04:20;;;;;;;2.85;1.42;;;;;9.50;92674.00;;;;7399859;19;20175;-76
2023/10/29 02:07:02;;;;;;;2.53;1.42;;;;;9.60;92674.00;;;;7399004;19;20144;-76
2023/10/29 02:09:37;;;;;;;2.58;1.20;;;;;9.60;92673.00;;;;7400406;19;20463;-77
2023/10/29 02:12:11;;;;;;;2.47;1.40;;;;;9.70;92674.00;;;;7398913;19;20145;-75
2023/10/29 02:14:40;;;;;;;3.63;1.03;;;;;9.70;92676.00;;;;7400334;19;20166;-77
2023/10/29 02:17:16;;;;;;;2.15;1.38;;;;;9.70;92678.00;;;;7398810;19;20145;-75
2023/10/29 02:19:48;;;;;;;3.38;1.40;;;;;9.70;92672.00;;;;7399642;19;20153;-76
2023/10/29 02:22:23;;;;;;;7.50;1.48;;;;;9.70;92668.00;;;;7398520;19;20150;-74
2023/10/29 02:25:01;;;;;;;3.57;1.23;;;;;9.80;92663.00;;;;7399267;19;20161;-77
2023/10/29 02:27:28;;;;;;;3.28;1.08;;;;;9.90;92658.00;;;;7398780;19;20148;-75
2023/10/29 02:30:08;;;;;;;2.20;1.33;;;;;9.90;92660.00;;;;7400098;19;20144;-76
2023/10/29 02:32:42;;;;;;;1.58;1.08;;;;;9.80;92664.00;;;;7398152;19;20161;-76
2023/10/29 02:35:16;;;;;;;1.40;1.17;;;;;10.00;92664.00;;;;7398367;19;20228;-76
2023/10/29 02:37:44;;;;;;;1.30;1.00;;;;;10.00;92643.00;;;;7398162;19;20157;-77
2023/10/29 02:40:19;;;;;;;3.80;1.40;;;;;10.00;92653.00;;;;7398910;19;20211;-77
2023/10/29 02:42:47;;;;;;;2.55;1.20;;;;;10.00;92656.00;;;;7399495;19;20151;-76
2023/10/29 02:45:24;;;;;;;3.37;1.33;;;;;10.10;92655.00;;;;7397315;19;20195;-79
2023/10/29 02:47:58;;;;;;;2.03;1.17;;;;;10.10;92660.00;;;;7397972;19;20154;-77
2023/10/29 02:50:26;;;;;;;1.42;1.05;;;;;10.10;92667.00;;;;7396663;19;20145;-77
2023/10/29 02:53:00;;;;;;;3.13;1.20;;;;;10.10;92667.00;;;;7397737;19;20132;-75
2023/10/29 02:55:29;;;;;;;6.47;1.17;;;;;10.00;92672.00;;;;7397484;19;20152;-76
2023/10/29 02:58:03;;;;;;;1.52;1.02;;;;;10.10;92661.00;;;;7398988;19;20136;-76
2023/10/29 03:00:32;;;;;;;1.52;1.15;;;;;9.90;92658.00;;;;7396197;19;20488;-74
2023/10/29 03:03:21;;;;;;;3.80;1.23;;;;;10.00;92658.00;;;;7395698;19;20144;-74
2023/10/29 03:05:51;;;;;;;3.55;1.23;;;;;10.00;92652.00;;;;7398932;19;20125;-75
2023/10/29 03:08:32;;;;;;;1.63;1.02;;;;;10.00;92660.00;;;;7395840;19;20166;-74
2023/10/29 03:11:09;;;;;;;1.95;1.25;;;;;10.10;92664.00;;;;7396846;19;20132;-75
2023/10/29 03:13:37;;;;;;;1.63;0.93;;;;;10.10;92667.00;;;;7397357;19;20161;-74
2023/10/29 03:16:12;;;;;;;2.20;1.25;;;;;10.20;92657.00;;;;7397285;19;20128;-74
2023/10/29 03:18:47;;;;;;;1.95;1.02;;;;;10.10;92648.00;;;;7395261;19;20145;-75
2023/10/29 03:21:23;;;;;;;3.33;1.00;;;;;10.00;92649.00;;;;7396986;19;20536;-73
2023/10/29 03:23:51;;;;;;;3.55;1.10;;;;;10.10;92649.00;;;;7397107;19;20157;-75
2023/10/29 03:26:25;;;;;;;1.60;0.93;;;;;10.00;92648.00;;;;7396696;19;20676;-75
2023/10/29 03:28:53;;;;;;;1.70;1.00;;;;;10.00;92650.00;;;;7398172;19;20133;-75
2023/10/29 03:31:29;;;;;;;1.15;0.90;;;;;10.00;92645.00;;;;7398478;19;20595;-76
2023/10/29 03:33:57;;;;;;;1.23;0.70;;;;;10.10;92647.00;;;;7397718;19;20608;-75
2023/10/29 03:36:32;;;;;;;1.63;1.08;;;;;10.10;92646.00;;;;7397944;19;20133;-75
2023/10/29 03:39:00;;;;;;;1.48;0.90;;;;;10.10;92654.00;;;;7395760;19;20509;-75
2023/10/29 03:41:34;;;;;;;2.63;1.20;;;;;10.10;92656.00;;;;7396018;19;20132;-75
2023/10/29 03:44:11;;;;;;;1.00;0.82;;;;;10.20;92650.00;;;;7396907;19;20172;-76
2023/10/29 03:46:52;;;;;;;1.05;0.95;;;;;10.20;92644.00;;;;7395308;19;20224;-75
2023/10/29 03:49:27;;;;;;;2.22;1.08;;;;;10.10;92635.00;;;;7397390;19;20129;-74
2023/10/29 03:51:54;;;;;;;2.22;0.95;;;;;10.10;92642.00;;;;7397346;19;20135;-75
2023/10/29 03:54:33;;;;;;;1.63;0.98;;;;;10.00;92648.00;;;;7396114;19;20170;-74
2023/10/29 03:57:07;;;;;;;2.75;0.93;;;;;10.00;92644.00;;;;7396166;19;20152;-75
2023/10/29 03:59:39;;;;;;;2.23;1.00;;;;;9.90;92646.00;;;;7396918;19;20200;-81
2023/10/29 04:02:13;;;;;;;3.60;1.10;;;;;9.90;92648.00;;;;7394440;19;20139;-79
2023/10/29 04:04:43;;;;;;;0.88;0.82;;;;;9.80;92651.00;;;;7395642;19;20149;-78
2023/10/29 04:07:32;;;;;;;1.55;1.30;;;;;9.80;92650.00;;;;7397052;19;20152;-79
2023/10/29 04:10:13;;;;;;;3.40;1.20;;;;;9.80;92639.00;;;;7397178;19;20480;-80
2023/10/29 04:12:44;;;;;;;1.47;1.10;;;;;9.50;92639.00;;;;7403012;19;20160;-80
2023/10/29 04:15:19;;;;;;;7.57;1.30;;;;;9.90;92629.00;;;;7404530;19;20159;-78
2023/10/29 04:17:53;;;;;;;1.33;1.10;;;;;9.80;92633.00;;;;7404197;19;20474;-79
2023/10/29 04:20:23;;;;;;;4.45;1.13;;;;;9.70;92642.00;;;;7400224;19;20596;-80
2023/10/29 04:22:57;;;;;;;2.60;1.00;;;;;9.70;92639.00;;;;7403789;19;20624;-79
2023/10/29 04:25:25;;;;;;;3.45;1.17;;;;;9.70;92630.00;;;;7403469;19;20167;-80
2023/10/29 04:27:59;;;;;;;3.25;1.20;;;;;9.70;92639.00;;;;7404194;19;20127;-78
2023/10/29 04:30:27;;;;;;;2.50;1.23;;;;;9.70;92644.00;;;;7404597;19;20185;-78
2023/10/29 04:33:01;;;;;;;2.28;1.20;;;;;9.70;92638.00;;;;7403201;19;20245;-80
2023/10/29 04:35:30;;;;;;;2.00;1.10;;;;;9.70;92630.00;;;;7404500;19;20143;-78
2023/10/29 04:38:04;;;;;;;3.97;0.80;;;;;9.70;92629.00;;;;7403801;19;20132;-78
2023/10/29 04:40:31;;;;;;;1.63;1.20;;;;;9.80;92631.00;;;;7401541;19;20137;-79
2023/10/29 04:43:06;;;;;;;1.60;1.10;;;;;9.80;92627.00;;;;7403033;19;20501;-79
2023/10/29 04:45:34;;;;;;;1.48;1.08;;;;;10.00;92625.00;;;;7404007;19;20154;-80
2023/10/29 04:48:08;;;;;;;1.42;0.98;;;;;10.10;92622.00;;;;7401688;19;20148;-79
2023/10/29 04:50:42;;;;;;;1.77;1.17;;;;;10.10;92615.00;;;;7402662;19;20148;-80
2023/10/29 04:53:10;;;;;;;1.10;1.00;;;;;10.00;92605.00;;;;7402256;19;20173;-79
2023/10/29 04:55:42;;;;;;;3.13;1.23;;;;;9.90;92601.00;;;;7400909;19;20171;-79
2023/10/29 04:58:16;;;;;;;1.05;0.75;;;;;9.90;92604.00;;;;7401440;19;20136;-79
2023/10/29 05:00:43;;;;;;;0.88;0.60;;;;;9.90;92596.00;;;;7398216;19;20155;-79
2023/10/29 05:03:18;;;;;;;0.98;0.82;;;;;9.70;92599.00;;;;7400773;19;20156;-78
2023/10/29 05:05:49;;;;;;;1.80;1.05;;;;;9.50;92579.00;;;;7401243;19;20133;-78
2023/10/29 05:08:22;;;;;;;1.58;1.13;;;;;9.30;92585.00;;;;7399702;19;20145;-79
2023/10/29 05:10:59;;;;;;;1.75;1.10;;;;;9.30;92591.00;;;;7402742;19;20151;-76
2023/10/29 05:13:27;;;;;;;2.05;0.90;;;;;9.10;92588.00;;;;7398169;19;20131;-76
2023/10/29 05:16:05;;;;;;;1.73;1.20;;;;;9.10;92603.00;;;;7400164;19;20213;-77
2023/10/29 05:18:33;;;;;;;2.03;1.13;;;;;9.20;92595.00;;;;7399202;19;20489;-76
2023/10/29 05:21:08;;;;;;;1.30;1.00;;;;;9.40;92599.00;;;;7395427;19;20181;-76
2023/10/29 05:23:43;;;;;;;1.60;0.90;;;;;9.40;92599.00;;;;7392676;19;20144;-76
2023/10/29 05:26:10;;;;;;;1.70;1.07;;;;;9.60;92607.00;;;;7399569;19;20164;-77
2023/10/29 05:28:38;;;;;;;1.83;0.95;;;;;9.80;92602.00;;;;7397154;19;20133;-76
2023/10/29 05:31:16;;;;;;;1.20;1.00;;;;;9.80;92610.00;;;;7399948;19;20886;-76
2023/10/29 05:33:44;;;;;;;1.20;0.88;;;;;10.00;92609.00;;;;7402165;19;20129;-76
2023/10/29 05:36:18;;;;;;;2.05;0.98;;;;;10.10;92604.00;;;;7400889;19;20132;-78
2023/10/29 05:38:52;;;;;;;1.10;0.90;;;;;10.10;92598.00;;;;7398128;19;20145;-74
2023/10/29 05:41:26;;;;;;;2.47;0.98;;;;;10.10;92594.00;;;;7399984;19;20144;-76
2023/10/29 05:43:54;;;;;;;2.13;0.80;;;;;10.10;92606.00;;;;7389109;19;20165;-77
2023/10/29 05:46:29;;;;;;;1.75;0.90;;;;;10.20;92596.00;;;;7377419;19;20194;-77
2023/10/29 05:48:56;;;;;;;1.80;0.95;;;;;10.30;92618.00;;;;7385351;19;20140;-76
2023/10/29 05:51:31;;;;;;;1.50;1.00;;;;;10.30;92617.00;;;;7387423;19;20520;-77
2023/10/29 05:54:07;;;;;;;3.03;1.10;;;;;10.30;92622.00;;;;7387439;19;20201;-74
2023/10/29 05:56:43;;;;;;;2.50;1.00;;;;;10.20;92622.00;;;;7386991;19;20140;-76
2023/10/29 05:59:20;;;;;;;1.35;0.90;;;;;10.10;92617.00;;;;7389485;19;20160;-76
2023/10/29 06:01:55;;;;;;;2.63;0.85;;;;;10.10;92622.00;;;;7386548;19;20520;-77
2023/10/29 06:04:23;;;;;;;3.22;1.30;;;;;10.00;92617.00;;;;7387782;19;20141;-79
2023/10/29 06:07:05;;;;;;;1.20;0.90;;;;;10.10;92628.00;;;;7385220;19;20610;-76
2023/10/29 06:09:43;;;;;;;2.25;1.23;;;;;10.10;92627.00;;;;7387889;19;20128;-77
2023/10/29 06:12:18;;;;;;;1.90;1.00;;;;;10.00;92628.00;;;;7387292;19;20140;-75
2023/10/29 06:14:54;;;;;;;1.70;0.90;;;;;10.00;92638.00;;;;7378075;19;20152;-77
2023/10/29 06:17:31;;;;;;;1.58;1.02;;;;;10.10;92635.00;;;;7382530;19;20492;-78
2023/10/29 06:20:01;;;;;;;1.88;0.95;;;;;10.10;92647.00;;;;7387375;19;20125;-77
2023/10/29 06:22:48;;;;;;;1.00;0.80;;;;;10.10;92651.00;;;;7387728;19;20153;-77
2023/10/29 06:25:23;;;;;;;2.45;0.90;;;;;10.30;92658.00;;;;7388035;19;20213;-77
2023/10/29 06:27:52;;;;;;;1.83;0.93;;;;;10.50;92648.00;;;;7386725;19;20157;-75
2023/10/29 06:30:25;;;;;;;1.05;0.90;;;;;10.70;92660.00;;;;7386338;19;20148;-77
2023/10/29 06:33:01;;;;;;;2.35;0.90;;;;;10.70;92670.00;;;;7386330;19;20147;-77
2023/10/29 06:35:29;;;;;;;1.70;0.73;;;;;10.60;92668.00;;;;7387365;19;20135;-77
2023/10/29 06:38:04;;;;;;;2.78;0.80;;;;;10.50;92683.00;;;;7386894;19;20156;-78
2023/10/29 06:40:33;;;;;;;1.75;0.88;;;;;10.50;92683.00;;;;7387678;19;20589;-78
2023/10/29 06:43:08;;;;;;;2.60;1.02;;;;;10.40;92696.00;;;;7386307;19;20616;-77
2023/10/29 06:45:37;;;;;;;1.33;0.70;;;;;10.40;92695.00;;;;7386750;19;20176;-76
2023/10/29 06:48:11;;;;;;;4.25;1.00;;;;;10.30;92701.00;;;;7386117;19;20168;-75
2023/10/29 06:50:41;;;;;;;2.05;0.88;;;;;10.50;92706.00;;;;7386523;19;20132;-74
2023/10/29 06:53:15;;;;;;;1.83;0.82;;;;;10.40;92719.00;;;;7388128;19;20129;-76
2023/10/29 06:55:47;;;;;;;1.05;0.70;;;;;10.60;92711.00;;;;7385342;19;20148;-75
2023/10/29 06:58:21;;;;;;;1.20;0.80;;;;;10.80;92717.00;;;;7387822;19;20167;-78
2023/10/29 07:00:48;;;;;;;0.70;0.70;;;;;10.80;92723.00;;;;7385585;19;20585;-76
2023/10/29 07:03:31;;;;;;;1.42;0.90;;;;;10.80;92730.00;;;;7388895;19;20467;-76
2023/10/29 07:06:14;;;;;;;2.70;1.20;;;;;10.90;92731.00;;;;7385214;19;20475;-75
2023/10/29 07:08:48;;;;;;;1.08;0.90;;;;;10.90;92731.00;;;;7387117;19;20183;-76
2023/10/29 07:11:23;;;;;;;2.22;0.88;;;;;11.10;92725.00;;;;7384087;19;20603;-77
2023/10/29 07:13:58;;;;;;;2.15;0.95;;;;;11.20;92732.00;;;;7387470;19;20252;-77
2023/10/29 07:16:32;;;;;;;1.23;0.85;;;;;11.30;92744.00;;;;7386823;19;20184;-74
2023/10/29 07:19:07;;;;;;;1.38;0.88;;;;;11.30;92748.00;;;;7385198;19;20154;-77
2023/10/29 07:21:34;;;;;;;2.22;0.82;;;;;11.40;92750.00;;;;7386919;19;20153;-78
2023/10/29 07:24:09;;;;;;;1.92;0.80;;;;;11.60;92747.00;;;;7385749;19;20140;-77
2023/10/29 07:26:37;;;;;;;1.50;0.75;;;;;11.80;92747.00;;;;7385168;19;20608;-76
2023/10/29 07:29:05;;;;;;;0.90;0.85;;;;;11.70;92758.00;;;;7384820;19;20187;-76
2023/10/29 07:31:39;;;;;;;1.95;1.20;;;;;11.70;92755.00;;;;7386968;19;20140;-76
2023/10/29 07:34:07;;;;;;;3.20;0.88;;;;;11.70;92767.00;;;;7384582;19;20165;-77
2023/10/29 07:36:44;;;;;;;0.68;0.68;;;;;11.80;92766.00;;;;7385823;19;20156;-78
2023/10/29 07:39:11;;;;;;;1.83;0.90;;;;;12.00;92765.00;;;;7385694;19;20467;-75
2023/10/29 07:41:47;;;;;;;2.00;0.70;;;;;12.10;92762.00;;;;7384356;19;20489;-75
2023/10/29 07:44:24;;;;;;;2.08;0.82;;;;;12.10;92761.00;;;;7384989;19;20133;-76
2023/10/29 07:47:02;;;;;;;2.83;1.00;;;;;12.10;92767.00;;;;7390032;19;20559;-76
2023/10/29 07:49:31;;;;;;;1.27;0.70;;;;;12.10;92781.00;;;;7391053;19;20165;-76
2023/10/29 07:52:06;;;;;;;1.67;0.80;;;;;12.20;92771.00;;;;7390243;19;20580;-75
2023/10/29 07:54:34;;;;;;;0.88;0.80;;;;;12.20;92769.00;;;;7391922;19;20200;-75
2023/10/29 07:57:10;;;;;;;1.63;0.68;;;;;12.10;92777.00;;;;7390487;19;20839;-75
2023/10/29 07:59:45;;;;;;;0.90;0.70;;;;;12.10;92775.00;;;;7391748;19;20192;-75
2023/10/29 08:02:12;;;;;;;1.85;0.90;;;;;12.00;92766.00;;;;7391215;19;20170;-77
2023/10/29 08:04:47;;;;;;;1.40;0.82;;;;;11.90;92775.00;;;;7391964;19;20125;-75
2023/10/29 08:07:24;;;;;;;2.17;0.82;;;;;11.80;92780.00;;;;7391274;19;20137;-75
2023/10/29 08:10:10;;;;;;;2.17;1.00;;;;;11.60;92787.00;;;;7391093;19;20150;-75
2023/10/29 08:12:38;;;;;;;1.98;0.90;;;;;11.50;92789.00;;;;7389676;19;20170;-74
2023/10/29 08:15:12;;;;;;;2.95;1.48;;;;;11.40;92795.00;;;;7390021;19;20136;-74
2023/10/29 08:17:40;;;;;;;1.33;0.95;;;;;11.20;92797.00;;;;7396362;19;20136;-75
2023/10/29 08:20:14;;;;;;;1.35;1.00;;;;;11.20;92795.00;;;;7396637;19;20150;-75
2023/10/29 08:22:44;;;;;;;1.30;0.98;;;;;11.20;92793.00;;;;7393127;19;20132;-73
2023/10/29 08:25:19;;;;;;;2.55;1.02;;;;;11.30;92785.00;;;;7390327;19;20577;-74
2023/10/29 08:27:56;;;;;;;3.05;1.08;;;;;11.30;92773.00;;;;7388460;19;20659;-73
2023/10/29 08:30:23;;;;;;;2.30;0.98;;;;;11.60;92779.00;;;;7387965;19;20619;-74
2023/10/29 08:32:58;;;;;;;1.45;1.35;;;;;11.70;92772.00;;;;7389435;19;20192;-74
2023/10/29 08:35:26;;;;;;;1.30;1.00;;;;;11.90;92763.00;;;;7389234;19;20133;-74
2023/10/29 08:38:00;;;;;;;1.88;1.10;;;;;12.00;92750.00;;;;7386465;19;20136;-74
2023/10/29 08:40:34;;;;;;;2.42;1.08;;;;;12.20;92752.00;;;;7387607;19;20734;-76
2023/10/29 08:43:08;;;;;;;1.55;1.08;;;;;12.20;92757.00;;;;7388219;19;20144;-75
2023/10/29 08:45:44;;;;;;;1.95;0.85;;;;;12.50;92748.00;;;;7384686;19;20606;-76
2023/10/29 08:48:12;;;;;;;1.45;0.88;;;;;12.70;92749.00;;;;7388129;19;20139;-76
2023/10/29 08:50:48;;;;;;;3.03;0.98;;;;;12.90;92745.00;;;;7389344;19;20464;-77
2023/10/29 08:53:17;;;;;;;1.33;1.20;;;;;13.20;92743.00;;;;7387288;19;20149;-78
2023/10/29 08:55:54;;;;;;;4.72;2.05;;;;;13.40;92753.00;;;;7388002;19;20643;-76
2023/10/29 08:58:28;;;;;;;3.10;2.00;;;;;13.30;92752.00;;;;7387790;19;20587;-77
2023/10/29 09:00:59;;;;;;;4.00;2.05;;;;;13.00;92751.00;;;;7388690;19;20583;-77
2023/10/29 09:03:34;;;;;;;3.85;1.60;;;;;13.10;92751.00;;;;7386626;19;20158;-75
2023/10/29 09:06:06;;;;;;;2.28;1.42;;;;;12.90;92744.00;;;;7386690;19;20156;-76
2023/10/29 09:08:46;;;;;;;2.17;1.55;;;;;12.50;92746.00;;;;7386433;19;20173;-75
2023/10/29 09:11:20;;;;;;;3.55;1.95;;;;;12.60;92741.00;;;;7388015;19;20160;-77
2023/10/29 09:13:51;;;;;;;3.70;1.88;;;;;12.40;92734.00;;;;7386855;19;20488;-76
2023/10/29 09:16:26;;;;;;;2.97;1.63;;;;;12.30;92738.00;;;;7387229;19;20142;-77
2023/10/29 09:18:54;;;;;;;3.10;1.80;;;;;12.20;92746.00;;;;7385021;19;20628;-75
2023/10/29 09:21:28;;;;;;;4.13;2.20;;;;;11.90;92749.00;;;;7386431;19;20592;-76
2023/10/29 09:24:02;;;;;;;3.03;2.20;;;;;11.70;92749.00;;;;7383256;19;20164;-76
2023/10/29 09:26:36;;;;;;;2.80;2.40;;;;;11.70;92737.00;;;;7384423;19;20499;-75
2023/10/29 09:29:13;;;;;;;3.83;2.25;;;;;11.60;92726.00;;;;7384431;19;20148;-77
2023/10/29 09:31:53;;;;;;;4.03;2.63;;;;;11.80;92728.00;;;;7389299;19;20160;-78
2023/10/29 09:34:29;;;;;;;3.03;2.30;;;;;12.00;92725.00;;;;7391162;19;20599;-76
2023/10/29 09:37:03;;;;;;;5.25;2.20;;;;;12.20;92727.00;;;;7387905;19;20152;-76
2023/10/29 09:39:37;;;;;;;5.43;2.25;;;;;12.30;92732.00;;;;7388109;19;20156;-78
2023/10/29 09:42:08;;;;;;;4.18;2.40;;;;;12.50;92723.00;;;;7390099;19;20510;-77
2023/10/29 09:44:44;;;;;;;3.47;2.17;;;;;12.60;92708.00;;;;7392031;19;20142;-79
2023/10/29 09:47:21;;;;;;;5.38;2.28;;;;;12.70;92708.00;;;;7395047;19;20734;-77
2023/10/29 09:49:51;;;;;;;5.38;2.15;;;;;12.70;92712.00;;;;7388565;19;20148;-75
2023/10/29 09:52:31;;;;;;;4.43;1.77;;;;;12.60;92708.00;;;;7385372;19;20155;-75
2023/10/29 09:55:00;;;;;;;4.47;2.22;;;;;12.60;92700.00;;;;7385227;19;20208;-76
2023/10/29 09:57:36;;;;;;;2.30;1.35;;;;;12.40;92711.00;;;;7385721;19;20144;-76
2023/10/29 10:00:12;;;;;;;3.75;1.80;;;;;12.50;92719.00;;;;7385744;19;20559;-74
2023/10/29 10:02:57;;;;;;;3.30;1.45;;;;;12.30;92714.00;;;;7386589;19;20527;-76
2023/10/29 10:05:31;;;;;;;5.25;1.60;;;;;12.30;92716.00;;;;7386036;19;20160;-76
2023/10/29 10:08:15;;;;;;;6.38;1.67;;;;;12.20;92713.00;;;;7385751;19;20160;-75
2023/10/29 10:10:50;;;;;;;2.35;1.63;;;;;12.20;92723.00;;;;7392519;19;20140;-74
2023/10/29 10:13:39;;;;;;;2.35;1.50;;;;;12.10;92723.00;;;;7389977;19;20167;-75
2023/10/29 10:16:15;;;;;;;1.85;1.27;;;;;12.10;92721.00;;;;7392801;19;20476;-76
2023/10/29 10:19:00;;;;;;;3.13;1.38;;;;;12.20;92720.00;;;;7389719;19;20149;-75
2023/10/29 10:21:43;;;;;;;3.00;1.30;;;;;12.20;92715.00;;;;7389869;19;20589;-76
2023/10/29 10:24:19;;;;;;;2.28;1.23;;;;;12.20;92716.00;;;;7388517;19;20147;-76
2023/10/29 10:26:48;;;;;;;2.00;1.30;;;;;12.10;92715.00;;;;7388566;19;20144;-75
2023/10/29 10:29:33;;;;;;;1.38;1.27;;;;;12.10;92712.00;;;;7389098;19;20632;-74
2023/10/29 10:32:04;;;;;;;1.85;1.10;;;;;12.10;92708.00;;;;7389345;19;20625;-74
2023/10/29 10:34:53;;;;;;;2.08;1.40;;;;;12.20;92701.00;;;;7387968;19;20144;-77
2023/10/29 10:37:24;;;;;;;2.20;1.30;;;;;12.20;92707.00;;;;7389656;19;20581;-76
2023/10/29 10:39:58;;;;;;;2.60;1.52;;;;;12.30;92708.00;;;;7392435;19;20137;-75
2023/10/29 10:42:28;;;;;;;1.92;1.50;;;;;12.30;92707.00;;;;7388989;19;20132;-73
2023/10/29 10:45:03;;;;;;;2.67;1.35;;;;;12.30;92696.00;;;;7388199;19;20144;-77
2023/10/29 10:47:38;;;;;;;1.25;1.15;;;;;12.30;92696.00;;;;7387594;19;20591;-77
2023/10/29 10:50:15;;;;;;;1.75;1.27;;;;;12.50;92700.00;;;;7388936;19;20128;-76
2023/10/29 10:52:51;;;;;;;2.08;1.60;;;;;12.40;92689.00;;;;7387211;19;20144;-75
2023/10/29 10:55:27;;;;;;;1.25;1.15;;;;;12.30;92694.00;;;;7387470;19;20164;-75
2023/10/29 10:58:20;;;;;;;2.58;1.33;;;;;12.20;92690.00;;;;7383616;19;20239;-76
2023/10/29 11:00:58;;;;;;;2.05;1.40;;;;;12.10;92687.00;;;;7390633;19;20144;-75
2023/10/29 11:03:34;;;;;;;10.02;1.63;;;;;12.20;92689.00;;;;7388921;19;20141;-78
2023/10/29 11:06:11;;;;;;;2.63;1.55;;;;;12.50;92689.00;;;;7387475;19;20155;-75
2023/10/29 11:08:41;;;;;;;1.92;1.40;;;;;13.30;92650.00;;;;7386551;19;20553;-75
2023/10/29 11:11:17;;;;;;;2.60;1.63;;;;;14.50;92671.00;;;;7389410;19;20211;-76
2023/10/29 11:13:44;;;;;;;2.70;1.58;;;;;14.60;92671.00;;;;7386393;19;20726;-74
2023/10/29 11:16:24;;;;;;;6.28;1.52;;;;;14.40;92674.00;;;;7385641;19;20159;-74
2023/10/29 11:18:59;;;;;;;1.73;1.42;;;;;14.40;92665.00;;;;7385188;19;20618;-75
2023/10/29 11:21:38;;;;;;;4.20;1.73;;;;;15.20;92662.00;;;;7391613;19;20347;-77
2023/10/29 11:24:21;;;;;;;2.63;1.50;;;;;15.10;92661.00;;;;7390755;19;20635;-74
2023/10/29 11:27:35;;;;;;;1.92;1.42;;;;;15.10;92648.00;;;;7392285;19;20149;-76
2023/10/29 11:30:14;;;;;;;2.85;1.50;;;;;14.90;92655.00;;;;7389688;19;20120;-77
2023/10/29 11:33:06;;;;;;;1.80;1.27;;;;;14.80;92645.00;;;;7390436;19;20128;-78
2023/10/29 11:35:37;;;;;;;3.38;1.60;;;;;15.50;92652.00;;;;7390521;19;20630;-75
2023/10/29 11:38:30;;;;;;;2.80;1.27;;;;;16.20;92645.00;;;;7390155;19;20558;-75
2023/10/29 11:41:35;;;;;;;2.47;1.30;;;;;16.90;92640.00;;;;7391459;19;20586;-78
2023/10/29 11:44:19;;;;;;;1.80;1.30;;;;;17.00;92647.00;;;;7389973;19;20583;-75
2023/10/29 11:46:56;;;;;;;2.72;1.70;;;;;16.70;92647.00;;;;7391720;19;20125;-77
2023/10/29 11:49:46;;;;;;;2.70;1.20;;;;;16.90;92630.00;;;;7391072;19;20165;-73
2023/10/29 11:52:13;;;;;;;2.42;1.45;;;;;17.60;92628.00;;;;7390699;19;20163;-75
2023/10/29 11:54:50;;;;;;;1.67;1.20;;;;;18.80;92642.00;;;;7391902;19;20132;-75
2023/10/29 11:57:22;;;;;;;1.95;1.27;;;;;17.50;92645.00;;;;7391833;19;20133;-77
2023/10/29 11:59:58;;;;;;;1.38;1.13;;;;;16.90;92635.00;;;;7391114;19;20126;-76
2023/10/29 12:02:33;;;;;;;4.30;1.20;;;;;16.90;92638.00;;;;7392541;19;20149;-76
2023/10/29 12:05:07;;;;;;;2.22;1.13;;;;;17.00;92655.00;;;;7390521;19;20200;-76
2023/10/29 12:07:44;;;;;;;2.70;1.27;;;;;16.70;92659.00;;;;7390686;19;20691;-79
2023/10/29 12:10:25;;;;;;;1.48;1.20;;;;;16.30;92670.00;;;;7390311;19;20587;-77
2023/10/29 12:13:06;;;;;;;1.90;1.17;;;;;16.10;92677.00;;;;7392150;19;20143;-77
2023/10/29 12:15:39;;;;;;;1.92;1.15;;;;;16.10;92685.00;;;;7393048;19;20592;-75
2023/10/29 12:18:20;;;;;;;5.45;1.55;;;;;16.00;92689.00;;;;7390165;19;20636;-77
2023/10/29 12:21:10;;;;;;;1.38;1.10;;;;;15.80;92686.00;;;;7390404;19;20450;-77
2023/10/29 12:23:40;;;;;;;2.17;1.20;;;;;15.70;92687.00;;;;7390831;19;20158;-77
2023/10/29 12:26:18;;;;;;;1.27;1.05;;;;;15.60;92673.00;;;;7390161;19;20128;-76
2023/10/29 12:28:52;;;;;;;2.35;1.30;;;;;15.70;92657.00;;;;7391739;19;20140;-78
2023/10/29 12:31:27;;;;;;;2.10;1.10;;;;;15.60;92655.00;;;;7388338;19;20129;-76
2023/10/29 12:34:02;;;;;;;2.47;1.20;;;;;15.80;92640.00;;;;7390297;19;20133;-77
2023/10/29 12:36:38;;;;;;;1.48;1.20;;;;;16.30;92628.00;;;;7388311;19;20164;-78
2023/10/29 12:39:19;;;;;;;2.08;1.10;;;;;18.40;92631.00;;;;7381460;19;20124;-77
2023/10/29 12:41:59;;;;;;;3.70;1.45;;;;;19.60;92617.00;;;;7388753;19;20148;-77
2023/10/29 12:44:58;;;;;;;3.13;1.10;;;;;20.50;92602.00;;;;7386808;19;20224;-76
2023/10/29 12:47:32;;;;;;;2.17;1.05;;;;;20.80;92626.00;;;;7386858;19;20125;-76
2023/10/29 12:50:01;;;;;;;3.45;1.40;;;;;19.20;92638.00;;;;7386718;19;20240;-77
2023/10/29 12:52:41;;;;;;;1.90;1.17;;;;;17.90;92638.00;;;;7392415;19;20486;-78
2023/10/29 12:55:12;;;;;;;7.97;1.50;;;;;17.50;92647.00;;;;7390461;19;20145;-76
2023/10/29 12:57:53;;;;;;;1.90;1.20;;;;;17.10;92659.00;;;;7391542;19;20451;-75